Forside
METAR-TAF:

METAR-TAF

Lufthavne :

L.O. Simenstad Municipal Airport

Osceola, Wisconsin, USA

Breddekreds: 45-18-31N, længdekreds: 092-41-24W, højde: 275 m

Aktuelle vejr

Denne rapport blev lavet for 10 minutter siden, kl. 12:15 UTC
Vind 5 kt fra østsydøst
Temperatur 17°C
Fugtighed 94%
Tryk 1018 hPa
Sigt: 16.1 km
skyfri

METAR: KOEO 121215Z AUTO 12005KT 10SM CLR 17/16 A3005 RMK AO2 T01700161

Tid: 07:25 (12:25 UTC)


TAF: fraværende

Vejrobservationer og prognoser fra mere end 4000 lufthavne (METAR og TAF).

De gule og røde prikker repræsenterer de meteorologiske stationer.

Flyt musen over at se navnet på stationen.

Så klik over at se vejr observationer og prognoser.

At skifte det kort: Klik på de grønne knapper med et sort kors for at zoome ind; på den grønne knap med en bindestreg for at zoome ud; eller på de grønne pile for tilstødende kort.


METAR-TAF: